sensor_id;sensor_type;location;lat;lon;timestamp;temperature;humidity
16929;DHT22;8581;47.334;11.190;2023-05-16T00:02:08;7.50;99.90
16929;DHT22;8581;47.334;11.190;2023-05-16T00:04:39;7.30;99.90
16929;DHT22;8581;47.334;11.190;2023-05-16T00:07:11;7.20;99.90
16929;DHT22;8581;47.334;11.190;2023-05-16T00:09:42;7.20;99.90
16929;DHT22;8581;47.334;11.190;2023-05-16T00:12:14;7.20;99.90
16929;DHT22;8581;47.334;11.190;2023-05-16T00:14:46;7.30;99.90
16929;DHT22;8581;47.334;11.190;2023-05-16T00:17:18;7.30;99.90
16929;DHT22;8581;47.334;11.190;2023-05-16T00:19:50;7.20;99.90
16929;DHT22;8581;47.334;11.190;2023-05-16T00:22:21;7.30;99.90
16929;DHT22;8581;47.334;11.190;2023-05-16T00:24:53;7.30;99.90
16929;DHT22;8581;47.334;11.190;2023-05-16T00:27:24;7.20;99.90
16929;DHT22;8581;47.334;11.190;2023-05-16T00:29:56;7.20;99.90
16929;DHT22;8581;47.334;11.190;2023-05-16T00:32:28;7.20;99.90
16929;DHT22;8581;47.334;11.190;2023-05-16T00:34:59;7.20;99.90
16929;DHT22;8581;47.334;11.190;2023-05-16T00:37:31;7.30;99.90
16929;DHT22;8581;47.334;11.190;2023-05-16T00:40:02;7.20;99.90
16929;DHT22;8581;47.334;11.190;2023-05-16T00:42:34;7.20;99.90
16929;DHT22;8581;47.334;11.190;2023-05-16T00:45:07;7.10;99.90
16929;DHT22;8581;47.334;11.190;2023-05-16T00:47:38;7.00;99.90
16929;DHT22;8581;47.334;11.190;2023-05-16T00:50:10;6.90;99.90
16929;DHT22;8581;47.334;11.190;2023-05-16T00:52:42;6.80;99.90
16929;DHT22;8581;47.334;11.190;2023-05-16T00:55:13;6.90;99.90
16929;DHT22;8581;47.334;11.190;2023-05-16T00:57:45;6.80;99.90
16929;DHT22;8581;47.334;11.190;2023-05-16T01:00:17;6.70;99.90
16929;DHT22;8581;47.334;11.190;2023-05-16T01:02:48;6.80;99.90
16929;DHT22;8581;47.334;11.190;2023-05-16T01:05:20;7.00;99.90
16929;DHT22;8581;47.334;11.190;2023-05-16T01:07:52;6.90;99.90
16929;DHT22;8581;47.334;11.190;2023-05-16T01:10:23;7.00;99.90
16929;DHT22;8581;47.334;11.190;2023-05-16T01:13:07;7.10;99.90
16929;DHT22;8581;47.334;11.190;2023-05-16T01:15:43;7.20;99.90
16929;DHT22;8581;47.334;11.190;2023-05-16T01:18:28;7.30;99.90
16929;DHT22;8581;47.334;11.190;2023-05-16T01:20:59;7.20;99.90
16929;DHT22;8581;47.334;11.190;2023-05-16T01:23:39;7.10;99.90
16929;DHT22;8581;47.334;11.190;2023-05-16T01:26:21;7.00;99.90
16929;DHT22;8581;47.334;11.190;2023-05-16T01:28:52;7.10;99.90
16929;DHT22;8581;47.334;11.190;2023-05-16T01:31:24;7.20;99.90
16929;DHT22;8581;47.334;11.190;2023-05-16T01:33:55;7.20;99.90
16929;DHT22;8581;47.334;11.190;2023-05-16T01:39:32;7.10;99.90
16929;DHT22;8581;47.334;11.190;2023-05-16T01:42:09;7.10;99.90
16929;DHT22;8581;47.334;11.190;2023-05-16T01:44:42;7.00;99.90
16929;DHT22;8581;47.334;11.190;2023-05-16T01:47:12;7.00;99.90
16929;DHT22;8581;47.334;11.190;2023-05-16T01:49:54;7.00;99.90
16929;DHT22;8581;47.334;11.190;2023-05-16T01:52:25;7.00;99.90
16929;DHT22;8581;47.334;11.190;2023-05-16T01:54:53;6.90;99.90
16929;DHT22;8581;47.334;11.190;2023-05-16T01:57:25;6.80;99.90
16929;DHT22;8581;47.334;11.190;2023-05-16T01:59:57;7.00;99.90
16929;DHT22;8581;47.334;11.190;2023-05-16T02:02:29;7.10;99.90
16929;DHT22;8581;47.334;11.190;2023-05-16T02:05:00;7.20;99.90
16929;DHT22;8581;47.334;11.190;2023-05-16T02:07:32;7.40;99.90
16929;DHT22;8581;47.334;11.190;2023-05-16T02:10:04;7.30;99.90
16929;DHT22;8581;47.334;11.190;2023-05-16T02:12:36;7.20;99.90
16929;DHT22;8581;47.334;11.190;2023-05-16T02:15:08;7.20;99.90
16929;DHT22;8581;47.334;11.190;2023-05-16T02:17:40;7.10;99.90
16929;DHT22;8581;47.334;11.190;2023-05-16T02:20:11;7.20;99.90
16929;DHT22;8581;47.334;11.190;2023-05-16T02:22:43;7.10;99.90
16929;DHT22;8581;47.334;11.190;2023-05-16T02:25:15;7.10;99.90
16929;DHT22;8581;47.334;11.190;2023-05-16T02:27:46;7.00;99.90
16929;DHT22;8581;47.334;11.190;2023-05-16T02:30:18;7.10;99.90
16929;DHT22;8581;47.334;11.190;2023-05-16T02:32:50;7.10;99.90
16929;DHT22;8581;47.334;11.190;2023-05-16T02:35:21;7.10;99.90
16929;DHT22;8581;47.334;11.190;2023-05-16T02:37:53;7.20;99.90
16929;DHT22;8581;47.334;11.190;2023-05-16T02:40:25;7.40;99.90
16929;DHT22;8581;47.334;11.190;2023-05-16T02:42:56;7.40;99.90
16929;DHT22;8581;47.334;11.190;2023-05-16T02:45:28;7.30;99.90
16929;DHT22;8581;47.334;11.190;2023-05-16T02:47:59;7.30;99.90
16929;DHT22;8581;47.334;11.190;2023-05-16T02:50:31;7.40;99.90
16929;DHT22;8581;47.334;11.190;2023-05-16T02:53:03;7.40;99.90
16929;DHT22;8581;47.334;11.190;2023-05-16T02:55:34;7.20;99.90
16929;DHT22;8581;47.334;11.190;2023-05-16T02:58:06;7.40;99.90
16929;DHT22;8581;47.334;11.190;2023-05-16T03:00:37;7.30;99.90
16929;DHT22;8581;47.334;11.190;2023-05-16T03:03:09;7.40;99.90
16929;DHT22;8581;47.334;11.190;2023-05-16T03:05:40;7.40;99.90
16929;DHT22;8581;47.334;11.190;2023-05-16T03:08:12;7.50;99.90
16929;DHT22;8581;47.334;11.190;2023-05-16T03:10:44;7.40;99.90
16929;DHT22;8581;47.334;11.190;2023-05-16T03:13:15;7.30;99.90
16929;DHT22;8581;47.334;11.190;2023-05-16T03:15:47;7.40;99.90
16929;DHT22;8581;47.334;11.190;2023-05-16T03:18:18;7.40;99.90
16929;DHT22;8581;47.334;11.190;2023-05-16T03:20:50;7.50;99.90
16929;DHT22;8581;47.334;11.190;2023-05-16T03:26:40;7.60;99.90
16929;DHT22;8581;47.334;11.190;2023-05-16T03:29:12;7.50;99.90
16929;DHT22;8581;47.334;11.190;2023-05-16T03:31:43;7.50;99.90
16929;DHT22;8581;47.334;11.190;2023-05-16T03:34:15;7.50;99.90
16929;DHT22;8581;47.334;11.190;2023-05-16T03:36:48;7.60;99.90
16929;DHT22;8581;47.334;11.190;2023-05-16T03:39:20;7.60;99.90
16929;DHT22;8581;47.334;11.190;2023-05-16T03:41:52;7.50;99.90
16929;DHT22;8581;47.334;11.190;2023-05-16T03:44:23;7.50;99.90
16929;DHT22;8581;47.334;11.190;2023-05-16T03:46:55;7.50;99.90
16929;DHT22;8581;47.334;11.190;2023-05-16T03:49:26;7.60;99.90
16929;DHT22;8581;47.334;11.190;2023-05-16T03:51:58;7.50;99.90
16929;DHT22;8581;47.334;11.190;2023-05-16T03:54:30;7.40;99.90
16929;DHT22;8581;47.334;11.190;2023-05-16T03:57:01;7.40;99.90
16929;DHT22;8581;47.334;11.190;2023-05-16T03:59:33;7.30;99.90
16929;DHT22;8581;47.334;11.190;2023-05-16T04:02:05;7.20;99.90
16929;DHT22;8581;47.334;11.190;2023-05-16T04:04:36;7.10;99.90
16929;DHT22;8581;47.334;11.190;2023-05-16T04:07:08;7.20;99.90
16929;DHT22;8581;47.334;11.190;2023-05-16T04:09:39;7.30;99.90
16929;DHT22;8581;47.334;11.190;2023-05-16T04:12:11;7.20;99.90
16929;DHT22;8581;47.334;11.190;2023-05-16T04:14:42;7.20;99.90
16929;DHT22;8581;47.334;11.190;2023-05-16T04:17:14;7.20;99.90
16929;DHT22;8581;47.334;11.190;2023-05-16T04:19:46;7.30;99.90
16929;DHT22;8581;47.334;11.190;2023-05-16T04:22:19;7.10;99.90
16929;DHT22;8581;47.334;11.190;2023-05-16T04:24:49;6.90;99.90
16929;DHT22;8581;47.334;11.190;2023-05-16T04:27:20;7.00;99.90
16929;DHT22;8581;47.334;11.190;2023-05-16T04:29:52;7.10;99.90
16929;DHT22;8581;47.334;11.190;2023-05-16T04:32:24;7.20;99.90
16929;DHT22;8581;47.334;11.190;2023-05-16T04:34:55;7.40;99.90
16929;DHT22;8581;47.334;11.190;2023-05-16T04:37:27;7.40;99.90
16929;DHT22;8581;47.334;11.190;2023-05-16T04:39:58;7.50;99.90
16929;DHT22;8581;47.334;11.190;2023-05-16T04:42:30;7.60;99.90
16929;DHT22;8581;47.334;11.190;2023-05-16T04:45:02;7.50;99.90
16929;DHT22;8581;47.334;11.190;2023-05-16T04:47:33;7.60;99.90
16929;DHT22;8581;47.334;11.190;2023-05-16T04:50:06;7.70;99.90
16929;DHT22;8581;47.334;11.190;2023-05-16T04:52:38;7.60;99.90
16929;DHT22;8581;47.334;11.190;2023-05-16T04:55:10;7.60;99.90
16929;DHT22;8581;47.334;11.190;2023-05-16T04:57:41;7.60;99.90
16929;DHT22;8581;47.334;11.190;2023-05-16T05:00:14;7.60;99.90
16929;DHT22;8581;47.334;11.190;2023-05-16T05:02:45;7.50;99.90
16929;DHT22;8581;47.334;11.190;2023-05-16T05:05:17;7.70;99.90
16929;DHT22;8581;47.334;11.190;2023-05-16T05:07:48;7.80;99.90
16929;DHT22;8581;47.334;11.190;2023-05-16T05:10:20;7.80;99.90
16929;DHT22;8581;47.334;11.190;2023-05-16T05:12:51;7.60;99.90
16929;DHT22;8581;47.334;11.190;2023-05-16T05:15:23;7.60;99.90
16929;DHT22;8581;47.334;11.190;2023-05-16T05:17:55;7.50;99.90
16929;DHT22;8581;47.334;11.190;2023-05-16T05:20:26;7.70;99.90
16929;DHT22;8581;47.334;11.190;2023-05-16T05:22:58;7.60;99.90
16929;DHT22;8581;47.334;11.190;2023-05-16T05:25:29;7.60;99.90
16929;DHT22;8581;47.334;11.190;2023-05-16T05:28:01;7.60;99.90
16929;DHT22;8581;47.334;11.190;2023-05-16T05:30:33;7.50;99.90
16929;DHT22;8581;47.334;11.190;2023-05-16T05:33:04;7.70;99.90
16929;DHT22;8581;47.334;11.190;2023-05-16T05:35:36;7.90;99.90
16929;DHT22;8581;47.334;11.190;2023-05-16T05:38:07;7.70;99.90
16929;DHT22;8581;47.334;11.190;2023-05-16T05:40:39;7.70;99.90
16929;DHT22;8581;47.334;11.190;2023-05-16T05:43:11;7.70;99.90
16929;DHT22;8581;47.334;11.190;2023-05-16T05:45:43;7.80;99.90
16929;DHT22;8581;47.334;11.190;2023-05-16T05:48:14;7.90;99.90
16929;DHT22;8581;47.334;11.190;2023-05-16T05:50:45;7.80;99.90
16929;DHT22;8581;47.334;11.190;2023-05-16T05:53:17;7.80;99.90
16929;DHT22;8581;47.334;11.190;2023-05-16T05:55:49;7.80;99.90
16929;DHT22;8581;47.334;11.190;2023-05-16T05:58:20;7.80;99.90
16929;DHT22;8581;47.334;11.190;2023-05-16T06:00:52;7.80;99.90
16929;DHT22;8581;47.334;11.190;2023-05-16T06:03:23;7.60;99.90
16929;DHT22;8581;47.334;11.190;2023-05-16T06:05:55;7.80;99.90
16929;DHT22;8581;47.334;11.190;2023-05-16T06:08:27;7.90;99.90
16929;DHT22;8581;47.334;11.190;2023-05-16T06:10:58;8.10;99.90
16929;DHT22;8581;47.334;11.190;2023-05-16T06:13:30;8.20;99.90
16929;DHT22;8581;47.334;11.190;2023-05-16T06:16:01;8.40;99.90
16929;DHT22;8581;47.334;11.190;2023-05-16T06:18:33;8.60;99.90
16929;DHT22;8581;47.334;11.190;2023-05-16T06:21:05;8.80;99.90
16929;DHT22;8581;47.334;11.190;2023-05-16T06:23:36;8.60;99.90
16929;DHT22;8581;47.334;11.190;2023-05-16T06:26:08;8.70;99.90
16929;DHT22;8581;47.334;11.190;2023-05-16T06:28:40;8.50;99.90
16929;DHT22;8581;47.334;11.190;2023-05-16T06:31:11;9.10;99.90
16929;DHT22;8581;47.334;11.190;2023-05-16T06:33:43;8.40;99.90
16929;DHT22;8581;47.334;11.190;2023-05-16T06:36:14;8.30;99.90
16929;DHT22;8581;47.334;11.190;2023-05-16T06:38:46;8.30;99.90
16929;DHT22;8581;47.334;11.190;2023-05-16T06:41:17;8.20;99.90
16929;DHT22;8581;47.334;11.190;2023-05-16T06:43:49;8.20;99.90
16929;DHT22;8581;47.334;11.190;2023-05-16T06:46:21;8.30;99.90
16929;DHT22;8581;47.334;11.190;2023-05-16T06:48:52;8.50;99.90
16929;DHT22;8581;47.334;11.190;2023-05-16T06:51:24;8.50;99.90
16929;DHT22;8581;47.334;11.190;2023-05-16T06:53:56;8.40;99.90
16929;DHT22;8581;47.334;11.190;2023-05-16T06:56:27;8.50;99.90
16929;DHT22;8581;47.334;11.190;2023-05-16T06:58:59;8.70;99.90
16929;DHT22;8581;47.334;11.190;2023-05-16T07:01:30;9.00;99.90
16929;DHT22;8581;47.334;11.190;2023-05-16T07:04:02;9.00;99.90
16929;DHT22;8581;47.334;11.190;2023-05-16T07:06:34;9.00;99.90
16929;DHT22;8581;47.334;11.190;2023-05-16T07:09:05;9.00;99.90
16929;DHT22;8581;47.334;11.190;2023-05-16T07:11:37;8.90;99.90
16929;DHT22;8581;47.334;11.190;2023-05-16T07:14:08;8.80;99.90
16929;DHT22;8581;47.334;11.190;2023-05-16T07:16:40;9.00;99.90
16929;DHT22;8581;47.334;11.190;2023-05-16T07:19:12;9.20;99.90
16929;DHT22;8581;47.334;11.190;2023-05-16T07:21:43;9.10;99.90
16929;DHT22;8581;47.334;11.190;2023-05-16T07:24:15;9.00;99.90
16929;DHT22;8581;47.334;11.190;2023-05-16T07:26:46;9.00;99.90
16929;DHT22;8581;47.334;11.190;2023-05-16T07:29:18;8.90;99.90
16929;DHT22;8581;47.334;11.190;2023-05-16T07:31:50;8.60;99.90
16929;DHT22;8581;47.334;11.190;2023-05-16T07:34:21;8.60;99.90
16929;DHT22;8581;47.334;11.190;2023-05-16T07:36:53;8.60;99.90
16929;DHT22;8581;47.334;11.190;2023-05-16T07:39:24;8.50;99.90
16929;DHT22;8581;47.334;11.190;2023-05-16T07:41:56;8.80;99.90
16929;DHT22;8581;47.334;11.190;2023-05-16T07:44:28;9.10;99.90
16929;DHT22;8581;47.334;11.190;2023-05-16T07:46:59;9.20;99.90
16929;DHT22;8581;47.334;11.190;2023-05-16T07:49:31;9.30;99.90
16929;DHT22;8581;47.334;11.190;2023-05-16T07:52:03;9.10;99.90
16929;DHT22;8581;47.334;11.190;2023-05-16T07:54:34;9.10;99.90
16929;DHT22;8581;47.334;11.190;2023-05-16T07:57:06;9.10;99.90
16929;DHT22;8581;47.334;11.190;2023-05-16T07:59:38;9.20;99.90
16929;DHT22;8581;47.334;11.190;2023-05-16T08:02:09;9.10;99.90
16929;DHT22;8581;47.334;11.190;2023-05-16T08:04:41;9.00;99.90
16929;DHT22;8581;47.334;11.190;2023-05-16T08:07:15;9.10;99.90
16929;DHT22;8581;47.334;11.190;2023-05-16T08:09:47;9.20;99.90
16929;DHT22;8581;47.334;11.190;2023-05-16T08:12:18;9.40;99.90
16929;DHT22;8581;47.334;11.190;2023-05-16T08:14:57;9.20;99.90
16929;DHT22;8581;47.334;11.190;2023-05-16T08:17:28;9.20;99.90
16929;DHT22;8581;47.334;11.190;2023-05-16T08:20:03;9.10;99.90
16929;DHT22;8581;47.334;11.190;2023-05-16T08:22:35;9.00;99.90
16929;DHT22;8581;47.334;11.190;2023-05-16T08:25:07;9.00;99.90
16929;DHT22;8581;47.334;11.190;2023-05-16T08:27:38;9.10;99.90
16929;DHT22;8581;47.334;11.190;2023-05-16T08:30:10;9.00;99.90
16929;DHT22;8581;47.334;11.190;2023-05-16T08:32:43;9.50;99.90
16929;DHT22;8581;47.334;11.190;2023-05-16T08:35:14;10.00;99.90
16929;DHT22;8581;47.334;11.190;2023-05-16T08:37:46;10.20;99.90
16929;DHT22;8581;47.334;11.190;2023-05-16T08:40:18;10.50;99.90
16929;DHT22;8581;47.334;11.190;2023-05-16T08:42:49;11.00;99.90
16929;DHT22;8581;47.334;11.190;2023-05-16T08:45:22;11.20;99.90
16929;DHT22;8581;47.334;11.190;2023-05-16T08:47:53;11.10;99.90
16929;DHT22;8581;47.334;11.190;2023-05-16T08:50:25;11.30;99.90
16929;DHT22;8581;47.334;11.190;2023-05-16T08:52:56;11.40;99.90
16929;DHT22;8581;47.334;11.190;2023-05-16T08:55:28;11.70;99.90
16929;DHT22;8581;47.334;11.190;2023-05-16T08:57:59;11.40;99.90
16929;DHT22;8581;47.334;11.190;2023-05-16T09:00:31;11.70;99.90
16929;DHT22;8581;47.334;11.190;2023-05-16T09:03:03;12.00;99.90
16929;DHT22;8581;47.334;11.190;2023-05-16T09:05:34;12.00;99.90
16929;DHT22;8581;47.334;11.190;2023-05-16T09:08:06;11.30;99.90
16929;DHT22;8581;47.334;11.190;2023-05-16T09:10:37;11.50;99.90
16929;DHT22;8581;47.334;11.190;2023-05-16T09:13:09;11.50;99.90
16929;DHT22;8581;47.334;11.190;2023-05-16T09:15:41;11.70;99.90
16929;DHT22;8581;47.334;11.190;2023-05-16T09:18:12;11.60;99.90
16929;DHT22;8581;47.334;11.190;2023-05-16T09:20:45;11.90;99.90
16929;DHT22;8581;47.334;11.190;2023-05-16T09:23:16;12.20;99.90
16929;DHT22;8581;47.334;11.190;2023-05-16T09:25:47;11.90;99.90
16929;DHT22;8581;47.334;11.190;2023-05-16T09:28:19;11.80;99.90
16929;DHT22;8581;47.334;11.190;2023-05-16T09:30:51;11.90;99.90
16929;DHT22;8581;47.334;11.190;2023-05-16T09:33:22;11.70;99.90
16929;DHT22;8581;47.334;11.190;2023-05-16T09:35:56;11.80;99.90
16929;DHT22;8581;47.334;11.190;2023-05-16T09:38:27;11.40;99.90
16929;DHT22;8581;47.334;11.190;2023-05-16T09:40:59;11.30;99.90
16929;DHT22;8581;47.334;11.190;2023-05-16T09:43:30;11.20;99.90
16929;DHT22;8581;47.334;11.190;2023-05-16T09:46:02;11.50;99.90
16929;DHT22;8581;47.334;11.190;2023-05-16T09:48:33;11.20;99.90
16929;DHT22;8581;47.334;11.190;2023-05-16T09:51:05;11.10;99.90
16929;DHT22;8581;47.334;11.190;2023-05-16T09:53:37;11.00;99.90
16929;DHT22;8581;47.334;11.190;2023-05-16T09:56:09;10.80;99.90
16929;DHT22;8581;47.334;11.190;2023-05-16T09:58:41;10.60;99.90
16929;DHT22;8581;47.334;11.190;2023-05-16T10:01:12;10.30;99.90
16929;DHT22;8581;47.334;11.190;2023-05-16T10:03:44;10.40;99.90
16929;DHT22;8581;47.334;11.190;2023-05-16T10:06:16;10.50;99.90
16929;DHT22;8581;47.334;11.190;2023-05-16T10:08:47;10.50;99.90
16929;DHT22;8581;47.334;11.190;2023-05-16T10:11:19;10.70;99.90
16929;DHT22;8581;47.334;11.190;2023-05-16T10:13:50;10.70;99.90
16929;DHT22;8581;47.334;11.190;2023-05-16T10:16:22;10.80;99.90
16929;DHT22;8581;47.334;11.190;2023-05-16T10:18:54;11.00;99.90
16929;DHT22;8581;47.334;11.190;2023-05-16T10:21:25;10.60;99.90
16929;DHT22;8581;47.334;11.190;2023-05-16T10:23:57;10.10;99.90
16929;DHT22;8581;47.334;11.190;2023-05-16T10:26:28;10.70;99.90
16929;DHT22;8581;47.334;11.190;2023-05-16T10:29:00;10.50;99.90
16929;DHT22;8581;47.334;11.190;2023-05-16T10:31:32;10.40;99.90
16929;DHT22;8581;47.334;11.190;2023-05-16T10:34:03;10.00;99.90
16929;DHT22;8581;47.334;11.190;2023-05-16T10:36:35;10.00;99.90
16929;DHT22;8581;47.334;11.190;2023-05-16T10:39:06;9.90;99.90
16929;DHT22;8581;47.334;11.190;2023-05-16T10:41:38;10.00;99.90
16929;DHT22;8581;47.334;11.190;2023-05-16T10:44:12;10.20;99.90
16929;DHT22;8581;47.334;11.190;2023-05-16T10:46:45;10.20;99.90
16929;DHT22;8581;47.334;11.190;2023-05-16T10:49:20;9.90;99.90
16929;DHT22;8581;47.334;11.190;2023-05-16T10:52:07;10.10;99.90
16929;DHT22;8581;47.334;11.190;2023-05-16T10:54:39;9.80;99.90
16929;DHT22;8581;47.334;11.190;2023-05-16T10:57:10;9.80;99.90
16929;DHT22;8581;47.334;11.190;2023-05-16T10:59:43;9.80;99.90
16929;DHT22;8581;47.334;11.190;2023-05-16T11:02:30;9.50;99.90
16929;DHT22;8581;47.334;11.190;2023-05-16T11:05:03;9.60;99.90
16929;DHT22;8581;47.334;11.190;2023-05-16T11:07:35;9.70;99.90
16929;DHT22;8581;47.334;11.190;2023-05-16T11:10:07;10.10;99.90
16929;DHT22;8581;47.334;11.190;2023-05-16T11:12:47;10.10;99.90
16929;DHT22;8581;47.334;11.190;2023-05-16T11:15:22;10.10;99.90
16929;DHT22;8581;47.334;11.190;2023-05-16T11:18:04;9.60;99.90
16929;DHT22;8581;47.334;11.190;2023-05-16T11:20:36;9.60;99.90
16929;DHT22;8581;47.334;11.190;2023-05-16T11:23:17;9.60;99.90
16929;DHT22;8581;47.334;11.190;2023-05-16T11:25:53;9.60;99.90
16929;DHT22;8581;47.334;11.190;2023-05-16T11:28:24;9.50;99.90
16929;DHT22;8581;47.334;11.190;2023-05-16T11:30:56;9.10;99.90
16929;DHT22;8581;47.334;11.190;2023-05-16T11:33:29;9.00;99.90
16929;DHT22;8581;47.334;11.190;2023-05-16T11:36:01;9.30;99.90
16929;DHT22;8581;47.334;11.190;2023-05-16T11:38:32;9.50;99.90
16929;DHT22;8581;47.334;11.190;2023-05-16T11:41:05;9.90;99.90
16929;DHT22;8581;47.334;11.190;2023-05-16T11:43:47;10.20;99.90
16929;DHT22;8581;47.334;11.190;2023-05-16T11:46:18;10.60;99.90
16929;DHT22;8581;47.334;11.190;2023-05-16T11:48:50;10.60;99.90
16929;DHT22;8581;47.334;11.190;2023-05-16T11:51:21;10.90;99.90
16929;DHT22;8581;47.334;11.190;2023-05-16T11:53:53;10.90;99.90
16929;DHT22;8581;47.334;11.190;2023-05-16T11:56:25;11.40;99.90
16929;DHT22;8581;47.334;11.190;2023-05-16T11:58:58;11.60;99.90
16929;DHT22;8581;47.334;11.190;2023-05-16T12:01:34;11.20;99.90
16929;DHT22;8581;47.334;11.190;2023-05-16T12:04:11;11.30;99.90
16929;DHT22;8581;47.334;11.190;2023-05-16T12:06:42;11.60;99.90
16929;DHT22;8581;47.334;11.190;2023-05-16T12:09:14;12.10;99.90
16929;DHT22;8581;47.334;11.190;2023-05-16T12:11:46;12.40;99.90
16929;DHT22;8581;47.334;11.190;2023-05-16T12:14:17;12.50;99.90
16929;DHT22;8581;47.334;11.190;2023-05-16T12:16:49;12.40;99.90
16929;DHT22;8581;47.334;11.190;2023-05-16T12:19:20;12.30;99.90
16929;DHT22;8581;47.334;11.190;2023-05-16T12:21:52;12.40;99.90
16929;DHT22;8581;47.334;11.190;2023-05-16T12:24:28;12.30;99.90
16929;DHT22;8581;47.334;11.190;2023-05-16T12:26:55;12.30;99.90
16929;DHT22;8581;47.334;11.190;2023-05-16T12:29:27;12.40;99.90
16929;DHT22;8581;47.334;11.190;2023-05-16T12:31:58;12.40;99.90
16929;DHT22;8581;47.334;11.190;2023-05-16T12:34:30;12.00;99.90
16929;DHT22;8581;47.334;11.190;2023-05-16T12:37:02;12.30;99.90
16929;DHT22;8581;47.334;11.190;2023-05-16T12:39:36;12.80;99.90
16929;DHT22;8581;47.334;11.190;2023-05-16T12:42:08;13.10;99.90
16929;DHT22;8581;47.334;11.190;2023-05-16T12:44:40;13.30;99.90
16929;DHT22;8581;47.334;11.190;2023-05-16T12:47:11;13.70;99.90
16929;DHT22;8581;47.334;11.190;2023-05-16T12:49:44;13.50;99.90
16929;DHT22;8581;47.334;11.190;2023-05-16T12:52:16;12.80;99.90
16929;DHT22;8581;47.334;11.190;2023-05-16T12:54:48;12.90;99.90
16929;DHT22;8581;47.334;11.190;2023-05-16T12:57:19;12.70;99.90
16929;DHT22;8581;47.334;11.190;2023-05-16T12:59:51;12.90;99.90
16929;DHT22;8581;47.334;11.190;2023-05-16T13:02:22;12.90;99.90
16929;DHT22;8581;47.334;11.190;2023-05-16T13:04:54;12.50;99.90
16929;DHT22;8581;47.334;11.190;2023-05-16T13:07:25;12.40;99.90
16929;DHT22;8581;47.334;11.190;2023-05-16T13:09:57;12.10;99.90
16929;DHT22;8581;47.334;11.190;2023-05-16T13:12:29;12.40;99.90
16929;DHT22;8581;47.334;11.190;2023-05-16T13:15:00;12.30;99.90
16929;DHT22;8581;47.334;11.190;2023-05-16T13:17:34;12.20;99.90
16929;DHT22;8581;47.334;11.190;2023-05-16T13:20:06;12.20;99.90
16929;DHT22;8581;47.334;11.190;2023-05-16T13:22:39;12.40;99.90
16929;DHT22;8581;47.334;11.190;2023-05-16T13:25:10;12.40;99.90
16929;DHT22;8581;47.334;11.190;2023-05-16T13:27:42;12.30;99.90
16929;DHT22;8581;47.334;11.190;2023-05-16T13:30:14;12.30;99.90
16929;DHT22;8581;47.334;11.190;2023-05-16T13:32:46;12.50;99.90
16929;DHT22;8581;47.334;11.190;2023-05-16T13:35:17;12.50;99.90
16929;DHT22;8581;47.334;11.190;2023-05-16T13:37:49;12.30;99.90
16929;DHT22;8581;47.334;11.190;2023-05-16T13:40:21;12.00;99.90
16929;DHT22;8581;47.334;11.190;2023-05-16T13:42:52;12.10;99.90
16929;DHT22;8581;47.334;11.190;2023-05-16T13:45:24;11.90;99.90
16929;DHT22;8581;47.334;11.190;2023-05-16T13:47:55;12.00;99.90
16929;DHT22;8581;47.334;11.190;2023-05-16T13:50:27;11.80;99.90
16929;DHT22;8581;47.334;11.190;2023-05-16T13:52:59;11.70;99.90
16929;DHT22;8581;47.334;11.190;2023-05-16T13:55:30;11.60;99.90
16929;DHT22;8581;47.334;11.190;2023-05-16T13:58:02;11.60;99.90
16929;DHT22;8581;47.334;11.190;2023-05-16T14:00:33;11.60;99.90
16929;DHT22;8581;47.334;11.190;2023-05-16T14:03:05;11.20;99.90
16929;DHT22;8581;47.334;11.190;2023-05-16T14:05:37;11.00;99.90
16929;DHT22;8581;47.334;11.190;2023-05-16T14:08:08;11.00;99.90
16929;DHT22;8581;47.334;11.190;2023-05-16T14:10:40;10.90;99.90
16929;DHT22;8581;47.334;11.190;2023-05-16T14:13:12;10.70;99.90
16929;DHT22;8581;47.334;11.190;2023-05-16T14:15:43;10.50;99.90
16929;DHT22;8581;47.334;11.190;2023-05-16T14:18:15;10.60;99.90
16929;DHT22;8581;47.334;11.190;2023-05-16T14:20:46;10.70;99.90
16929;DHT22;8581;47.334;11.190;2023-05-16T14:23:18;10.80;99.90
16929;DHT22;8581;47.334;11.190;2023-05-16T14:25:50;10.90;99.90
16929;DHT22;8581;47.334;11.190;2023-05-16T14:28:21;10.70;99.90
16929;DHT22;8581;47.334;11.190;2023-05-16T14:30:53;10.70;99.90
16929;DHT22;8581;47.334;11.190;2023-05-16T14:33:24;10.70;99.90
16929;DHT22;8581;47.334;11.190;2023-05-16T14:35:56;10.70;99.90
16929;DHT22;8581;47.334;11.190;2023-05-16T14:38:28;10.40;99.90
16929;DHT22;8581;47.334;11.190;2023-05-16T14:40:59;10.30;99.90
16929;DHT22;8581;47.334;11.190;2023-05-16T14:43:31;10.20;99.90
16929;DHT22;8581;47.334;11.190;2023-05-16T14:46:02;10.40;99.90
16929;DHT22;8581;47.334;11.190;2023-05-16T14:48:34;10.30;99.90
16929;DHT22;8581;47.334;11.190;2023-05-16T14:51:06;10.50;99.90
16929;DHT22;8581;47.334;11.190;2023-05-16T14:53:37;10.60;99.90
16929;DHT22;8581;47.334;11.190;2023-05-16T14:56:09;10.80;99.90
16929;DHT22;8581;47.334;11.190;2023-05-16T14:58:40;10.70;99.90
16929;DHT22;8581;47.334;11.190;2023-05-16T15:01:12;10.70;99.90
16929;DHT22;8581;47.334;11.190;2023-05-16T15:03:44;10.70;99.90
16929;DHT22;8581;47.334;11.190;2023-05-16T15:06:15;10.70;99.90
16929;DHT22;8581;47.334;11.190;2023-05-16T15:08:47;10.80;99.90
16929;DHT22;8581;47.334;11.190;2023-05-16T15:11:18;10.70;99.90
16929;DHT22;8581;47.334;11.190;2023-05-16T15:13:50;10.50;99.90
16929;DHT22;8581;47.334;11.190;2023-05-16T15:16:22;10.40;99.90
16929;DHT22;8581;47.334;11.190;2023-05-16T15:18:53;10.20;99.90
16929;DHT22;8581;47.334;11.190;2023-05-16T15:21:25;10.30;99.90
16929;DHT22;8581;47.334;11.190;2023-05-16T15:23:57;10.30;99.90
16929;DHT22;8581;47.334;11.190;2023-05-16T15:26:28;10.20;99.90
16929;DHT22;8581;47.334;11.190;2023-05-16T15:29:00;10.30;99.90
16929;DHT22;8581;47.334;11.190;2023-05-16T15:31:31;10.20;99.90
16929;DHT22;8581;47.334;11.190;2023-05-16T15:34:03;9.90;99.90
16929;DHT22;8581;47.334;11.190;2023-05-16T15:36:35;9.80;99.90
16929;DHT22;8581;47.334;11.190;2023-05-16T15:39:06;9.70;99.90
16929;DHT22;8581;47.334;11.190;2023-05-16T15:41:38;9.80;99.90
16929;DHT22;8581;47.334;11.190;2023-05-16T15:44:09;10.00;99.90
16929;DHT22;8581;47.334;11.190;2023-05-16T15:46:41;10.20;99.90
16929;DHT22;8581;47.334;11.190;2023-05-16T15:49:13;10.20;99.90
16929;DHT22;8581;47.334;11.190;2023-05-16T15:51:44;10.20;99.90
16929;DHT22;8581;47.334;11.190;2023-05-16T15:54:16;10.00;99.90
16929;DHT22;8581;47.334;11.190;2023-05-16T15:56:47;9.90;99.90
16929;DHT22;8581;47.334;11.190;2023-05-16T15:59:19;9.80;99.90
16929;DHT22;8581;47.334;11.190;2023-05-16T16:01:51;9.70;99.90
16929;DHT22;8581;47.334;11.190;2023-05-16T16:04:22;9.70;99.90
16929;DHT22;8581;47.334;11.190;2023-05-16T16:06:54;9.50;99.90
16929;DHT22;8581;47.334;11.190;2023-05-16T16:09:25;9.50;99.90
16929;DHT22;8581;47.334;11.190;2023-05-16T16:11:57;9.50;99.90
16929;DHT22;8581;47.334;11.190;2023-05-16T16:14:29;9.40;99.90
16929;DHT22;8581;47.334;11.190;2023-05-16T16:17:00;9.40;99.90